Terminal Aerodrome Forecast
Issued by NWS Wilmington, OH

Current Version | Previous Version | Graphics & Text | Print | Product List | Glossary On
Versions: 1 2 3 4 5 6 7 8 9 10 11 12 13 14
120
FTUS41 KILN 222320
TAFCMH
TAF
KCMH 222320Z 2300/2324 36010KT P6SM SCT080
     FM230200 03004KT P6SM SKC
     FM231900 03006KT P6SM BKN050=

USA.gov is the U.S. government's official web portal to all federal, state and local government web resources and services.